createdAt,value
2023-03-26T00:00:54.416Z,6.27
2023-03-26T00:03:58.137Z,5.58
2023-03-26T00:07:00.715Z,5.31
2023-03-26T00:10:16.201Z,7.54
2023-03-26T00:13:19.879Z,7.05
2023-03-26T00:16:24.486Z,4.57
2023-03-26T00:19:28.157Z,6.83
2023-03-26T00:22:34.283Z,5.89
2023-03-26T00:25:42.078Z,6.84
2023-03-26T00:32:30.661Z,4.87
2023-03-26T00:35:37.072Z,6.79
2023-03-26T00:38:41.691Z,7.24
2023-03-26T00:41:44.393Z,7.95
2023-03-26T00:44:46.792Z,8.13
2023-03-26T00:47:48.808Z,7.81
2023-03-26T00:50:51.250Z,8.25
2023-03-26T00:53:53.431Z,8.02
2023-03-26T00:56:56.319Z,8.16
2023-03-26T00:59:58.473Z,8.38
2023-03-26T01:03:05.233Z,8.27
2023-03-26T01:06:14.186Z,8.48
2023-03-26T01:09:19.337Z,8.54
2023-03-26T01:12:25.042Z,8.35
2023-03-26T01:15:30.117Z,8.36
2023-03-26T01:18:34.151Z,8.29
2023-03-26T01:21:38.978Z,8.28
2023-03-26T01:24:42.024Z,7.93
2023-03-26T01:27:54.879Z,7.42
2023-03-26T01:31:07.116Z,7.16
2023-03-26T01:34:21.580Z,7.10
2023-03-26T01:37:34.409Z,7.52
2023-03-26T01:40:49.639Z,7.21
2023-03-26T01:43:59.372Z,7.26
2023-03-26T01:47:02.101Z,8.08
2023-03-26T01:50:04.517Z,7.88
2023-03-26T01:53:08.282Z,8.27
2023-03-26T01:56:39.560Z,7.87
2023-03-26T01:59:56.400Z,7.88
2023-03-26T02:03:05.060Z,7.93
2023-03-26T02:06:15.854Z,8.20
2023-03-26T02:09:25.042Z,8.00
2023-03-26T02:12:29.513Z,7.92
2023-03-26T02:15:31.605Z,8.23
2023-03-26T02:18:37.032Z,8.02
2023-03-26T02:21:39.092Z,7.63
2023-03-26T02:24:42.023Z,8.14
2023-03-26T02:27:45.599Z,8.25
2023-03-26T02:30:47.645Z,8.25
2023-03-26T02:33:50.562Z,8.09
2023-03-26T02:36:53.002Z,8.04
2023-03-26T02:39:55.500Z,7.70
2023-03-26T02:43:04.649Z,7.52
2023-03-26T02:46:07.786Z,7.26
2023-03-26T02:49:38.988Z,7.75
2023-03-26T02:52:41.160Z,7.91
2023-03-26T02:55:43.250Z,7.59
2023-03-26T02:58:47.058Z,7.74
2023-03-26T03:01:49.307Z,8.38
2023-03-26T03:05:01.708Z,8.32
2023-03-26T03:08:08.288Z,8.32
2023-03-26T03:11:15.849Z,8.16
2023-03-26T03:14:20.938Z,7.91
2023-03-26T03:17:23.088Z,7.79
2023-03-26T03:20:25.136Z,7.90
2023-03-26T03:23:27.127Z,7.71
2023-03-26T03:26:38.273Z,7.43
2023-03-26T03:30:03.397Z,7.30
2023-03-26T03:33:19.409Z,7.84
2023-03-26T03:36:23.469Z,7.62
2023-03-26T03:39:35.112Z,7.79
2023-03-26T03:42:38.310Z,7.48
2023-03-26T03:45:41.427Z,7.85
2023-03-26T03:49:00.580Z,7.96
2023-03-26T03:52:08.229Z,7.69
2023-03-26T03:55:15.497Z,7.64
2023-03-26T03:58:28.410Z,7.49
2023-03-26T04:01:36.426Z,7.84
2023-03-26T04:04:59.113Z,7.86
2023-03-26T04:08:02.334Z,7.98
2023-03-26T04:11:15.127Z,7.74
2023-03-26T04:14:40.153Z,7.27
2023-03-26T04:17:52.297Z,8.01
2023-03-26T04:20:55.897Z,8.24
2023-03-26T04:24:03.108Z,7.96
2023-03-26T04:27:35.535Z,8.12
2023-03-26T04:31:07.190Z,8.04
2023-03-26T04:34:23.671Z,7.86
2023-03-26T04:37:55.056Z,7.59
2023-03-26T04:41:12.231Z,7.72
2023-03-26T04:44:22.958Z,7.61
2023-03-26T04:47:37.165Z,7.90
2023-03-26T04:50:45.492Z,7.79
2023-03-26T04:53:53.394Z,7.63
2023-03-26T04:57:09.411Z,8.02
2023-03-26T05:00:21.732Z,7.99
2023-03-26T05:03:32.758Z,8.10
2023-03-26T05:06:42.176Z,8.20
2023-03-26T05:10:15.808Z,8.31
2023-03-26T05:13:36.541Z,8.14
2023-03-26T05:16:44.975Z,8.01
2023-03-26T05:19:47.927Z,8.19
2023-03-26T05:22:51.708Z,8.21
2023-03-26T05:26:13.924Z,8.24
2023-03-26T05:29:17.941Z,8.12
2023-03-26T05:32:23.552Z,8.02
2023-03-26T05:35:26.812Z,8.14
2023-03-26T05:38:30.837Z,8.07
2023-03-26T05:41:33.071Z,8.38
2023-03-26T05:44:35.564Z,8.25
2023-03-26T05:47:43.156Z,8.09
2023-03-26T05:50:45.228Z,8.09
2023-03-26T05:53:47.256Z,7.77
2023-03-26T05:57:14.944Z,8.38
2023-03-26T06:00:38.584Z,8.56
2023-03-26T06:03:45.249Z,8.20
2023-03-26T06:06:54.297Z,8.32
2023-03-26T06:09:56.518Z,8.19
2023-03-26T06:12:58.586Z,8.28
2023-03-26T06:16:00.814Z,8.40
2023-03-26T06:19:11.358Z,8.27
2023-03-26T06:22:35.621Z,8.78
2023-03-26T06:26:16.380Z,8.62
2023-03-26T06:29:38.655Z,8.71
2023-03-26T06:32:46.659Z,8.95
2023-03-26T06:35:54.190Z,8.78
2023-03-26T06:38:56.631Z,8.91
2023-03-26T06:41:58.793Z,8.74
2023-03-26T06:45:19.179Z,8.68
2023-03-26T06:48:42.304Z,8.73
2023-03-26T06:51:53.334Z,8.84
2023-03-26T06:55:14.590Z,8.95
2023-03-26T06:58:35.360Z,9.21
2023-03-26T07:02:12.881Z,9.15
2023-03-26T07:05:35.166Z,9.45
2023-03-26T07:08:57.542Z,9.47
2023-03-26T07:12:19.764Z,9.48
2023-03-26T07:15:40.261Z,9.21
2023-03-26T07:19:01.875Z,9.81
2023-03-26T07:22:19.128Z,9.86
2023-03-26T07:25:41.913Z,9.51
2023-03-26T07:29:16.169Z,10.20
2023-03-26T07:32:56.309Z,10.30
2023-03-26T07:36:33.009Z,9.05
2023-03-26T07:40:10.531Z,10.23
2023-03-26T07:43:44.643Z,10.50
2023-03-26T07:47:27.544Z,10.81
2023-03-26T07:51:00.448Z,11.06
2023-03-26T07:54:21.123Z,10.92
2023-03-26T07:57:55.634Z,10.85
2023-03-26T08:01:41.046Z,11.16
2023-03-26T08:05:05.142Z,11.53
2023-03-26T08:08:58.733Z,11.88
2023-03-26T08:12:36.584Z,12.12
2023-03-26T08:16:03.035Z,12.00
2023-03-26T08:19:34.318Z,12.24
2023-03-26T08:22:41.467Z,12.38
2023-03-26T08:26:06.008Z,12.23
2023-03-26T08:29:27.713Z,11.83
2023-03-26T08:32:30.607Z,12.22
2023-03-26T08:35:35.426Z,12.43
2023-03-26T08:38:37.573Z,12.65
2023-03-26T08:42:27.976Z,12.56
2023-03-26T08:46:08.912Z,11.85
2023-03-26T08:49:17.303Z,12.50
2023-03-26T08:52:36.066Z,11.92
2023-03-26T08:55:52.825Z,12.65
2023-03-26T08:59:20.622Z,12.82
2023-03-26T09:02:41.204Z,12.88
2023-03-26T09:06:08.305Z,12.95
2023-03-26T09:09:43.385Z,10.02
2023-03-26T09:13:10.120Z,11.69
2023-03-26T09:16:56.293Z,12.81
2023-03-26T09:20:40.310Z,10.27
2023-03-26T09:24:18.102Z,11.23
2023-03-26T09:27:44.765Z,12.85
2023-03-26T09:31:05.759Z,12.83
2023-03-26T09:34:33.185Z,13.02
2023-03-26T09:37:56.953Z,12.80
2023-03-26T09:41:44.077Z,13.32
2023-03-26T09:45:21.183Z,12.91
2023-03-26T09:48:54.384Z,13.02
2023-03-26T09:52:34.291Z,13.40
2023-03-26T09:55:40.590Z,13.40
2023-03-26T09:58:53.133Z,12.99
2023-03-26T10:01:55.326Z,13.62
2023-03-26T10:05:16.128Z,13.87
2023-03-26T10:08:50.101Z,12.50
2023-03-26T10:12:10.586Z,13.33
2023-03-26T10:15:26.756Z,13.48
2023-03-26T10:18:51.527Z,12.06
2023-03-26T10:22:11.752Z,13.55
2023-03-26T10:25:23.256Z,13.52
2023-03-26T10:29:09.880Z,13.62
2023-03-26T10:32:46.876Z,14.03
2023-03-26T10:35:56.608Z,14.23
2023-03-26T10:39:36.284Z,14.53
2023-03-26T10:43:26.444Z,14.64
2023-03-26T10:47:08.370Z,14.84
2023-03-26T10:50:24.000Z,14.71
2023-03-26T10:53:35.116Z,14.89
2023-03-26T10:56:46.186Z,12.73
2023-03-26T10:59:48.391Z,14.68
2023-03-26T11:03:21.774Z,15.35
2023-03-26T11:06:36.070Z,15.46
2023-03-26T11:09:47.637Z,15.43
2023-03-26T11:13:16.075Z,15.45
2023-03-26T11:16:50.670Z,15.47
2023-03-26T11:20:11.168Z,15.36
2023-03-26T11:23:36.215Z,15.09
2023-03-26T11:27:14.889Z,15.32
2023-03-26T11:30:47.659Z,14.94
2023-03-26T11:33:55.577Z,15.05
2023-03-26T11:37:01.777Z,15.00
2023-03-26T11:40:21.626Z,15.06
2023-03-26T11:43:33.541Z,15.10
2023-03-26T11:46:40.277Z,15.07
2023-03-26T11:49:44.887Z,14.74
2023-03-26T11:52:47.226Z,15.09
2023-03-26T11:56:01.669Z,14.90
2023-03-26T11:59:24.460Z,15.07
2023-03-26T12:02:30.044Z,15.22
2023-03-26T12:05:36.801Z,15.06
2023-03-26T12:08:40.061Z,15.07
2023-03-26T12:11:48.302Z,15.02
2023-03-26T12:14:51.406Z,15.11
2023-03-26T12:17:57.302Z,15.23
2023-03-26T12:21:05.904Z,15.04
2023-03-26T12:24:30.750Z,15.22
2023-03-26T12:27:33.453Z,15.07
2023-03-26T12:30:38.154Z,14.96
2023-03-26T12:33:40.758Z,15.17
2023-03-26T12:36:50.718Z,15.28
2023-03-26T12:40:25.672Z,15.45
2023-03-26T12:44:54.026Z,15.38
2023-03-26T12:47:57.722Z,15.37
2023-03-26T12:50:47.782Z,15.39
2023-03-26T12:54:21.816Z,15.65
2023-03-26T12:58:13.993Z,15.64
2023-03-26T13:01:28.951Z,15.78
2023-03-26T13:05:05.534Z,16.12
2023-03-26T13:08:21.226Z,15.77
2023-03-26T13:11:38.614Z,15.48
2023-03-26T13:14:58.964Z,15.49
2023-03-26T13:18:27.450Z,15.69
2023-03-26T13:21:54.120Z,15.58
2023-03-26T13:25:23.264Z,15.65
2023-03-26T13:28:47.259Z,15.59
2023-03-26T13:32:17.229Z,15.56
2023-03-26T13:36:10.164Z,15.59
2023-03-26T13:39:26.681Z,15.63
2023-03-26T13:43:05.575Z,15.66
2023-03-26T13:46:13.331Z,15.70
2023-03-26T13:49:20.967Z,15.51
2023-03-26T13:52:46.196Z,15.25
2023-03-26T13:55:54.762Z,15.16
2023-03-26T13:59:03.601Z,15.10
2023-03-26T14:02:12.250Z,15.10
2023-03-26T14:05:26.607Z,15.07
2023-03-26T14:08:41.047Z,15.01
2023-03-26T14:12:00.408Z,15.01
2023-03-26T14:15:06.119Z,15.00
2023-03-26T14:18:25.275Z,15.02
2023-03-26T14:22:08.915Z,15.14
2023-03-26T14:25:45.204Z,15.38
2023-03-26T14:29:09.447Z,15.16
2023-03-26T14:32:32.169Z,15.19
2023-03-26T14:35:42.324Z,15.29
2023-03-26T14:38:57.396Z,15.18
2023-03-26T14:42:09.125Z,15.18
2023-03-26T14:45:48.468Z,15.24
2023-03-26T14:49:21.461Z,15.12
2023-03-26T14:52:38.402Z,15.08
2023-03-26T14:56:02.297Z,15.13
2023-03-26T14:59:38.116Z,15.10
2023-03-26T15:03:10.416Z,14.95
2023-03-26T15:06:54.474Z,14.94
2023-03-26T15:10:27.319Z,14.92
2023-03-26T15:14:02.174Z,14.85
2023-03-26T15:17:51.543Z,14.74
2023-03-26T15:21:32.853Z,14.69
2023-03-26T15:25:07.129Z,14.67
2023-03-26T15:28:40.525Z,14.59
2023-03-26T15:32:14.953Z,14.56
2023-03-26T15:35:32.751Z,14.50
2023-03-26T15:39:16.632Z,14.38
2023-03-26T15:42:31.951Z,14.22
2023-03-26T15:45:36.805Z,14.11
2023-03-26T15:49:14.502Z,13.96
2023-03-26T15:52:26.195Z,13.64
2023-03-26T15:55:32.060Z,13.41
2023-03-26T15:58:48.380Z,13.27
2023-03-26T16:02:05.126Z,13.30
2023-03-26T16:05:23.147Z,13.22
2023-03-26T16:08:56.688Z,13.09
2023-03-26T16:12:04.159Z,13.06
2023-03-26T16:15:07.759Z,13.01
2023-03-26T16:18:10.465Z,12.99
2023-03-26T16:21:38.056Z,12.87
2023-03-26T16:24:44.977Z,12.78
2023-03-26T16:27:47.811Z,12.67
2023-03-26T16:31:37.654Z,12.48
2023-03-26T16:34:53.975Z,12.35
2023-03-26T16:38:14.091Z,12.10
2023-03-26T16:41:19.709Z,11.84
2023-03-26T16:45:01.349Z,11.85
2023-03-26T16:48:22.376Z,11.68
2023-03-26T16:51:40.115Z,11.63
2023-03-26T16:55:19.765Z,11.52
2023-03-26T16:58:38.694Z,11.43
2023-03-26T17:01:48.861Z,11.30
2023-03-26T17:04:59.517Z,11.10
2023-03-26T17:08:42.876Z,11.15
2023-03-26T17:12:13.244Z,11.05
2023-03-26T17:15:37.322Z,11.10
2023-03-26T17:18:50.045Z,11.03
2023-03-26T17:22:20.746Z,11.01
2023-03-26T17:25:44.300Z,10.92
2023-03-26T17:29:18.322Z,10.90
2023-03-26T17:32:21.737Z,11.01
2023-03-26T17:35:47.647Z,10.88
2023-03-26T17:38:50.766Z,10.88
2023-03-26T17:42:01.897Z,10.82
2023-03-26T17:45:21.287Z,10.73
2023-03-26T17:48:29.003Z,10.63
2023-03-26T17:51:58.350Z,10.72
2023-03-26T17:55:02.493Z,10.77
2023-03-26T17:58:27.575Z,10.67
2023-03-26T18:01:39.442Z,10.57
2023-03-26T18:04:46.460Z,10.55
2023-03-26T18:08:22.346Z,10.54
2023-03-26T18:11:33.268Z,10.47
2023-03-26T18:15:03.420Z,10.35
2023-03-26T18:18:33.461Z,10.36
2023-03-26T18:21:43.149Z,10.42
2023-03-26T18:24:54.643Z,10.34
2023-03-26T18:27:58.929Z,10.29
2023-03-26T18:31:20.915Z,10.19
2023-03-26T18:34:26.786Z,10.04
2023-03-26T18:37:36.461Z,9.93
2023-03-26T18:40:44.996Z,9.88
2023-03-26T18:43:49.567Z,9.81
2023-03-26T18:46:57.741Z,9.74
2023-03-26T18:50:01.494Z,9.82
2023-03-26T18:53:07.910Z,9.80
2023-03-26T18:56:32.518Z,9.71
2023-03-26T18:59:40.879Z,9.76
2023-03-26T19:02:45.556Z,9.72
2023-03-26T19:05:50.113Z,9.67
2023-03-26T19:08:54.021Z,9.33
2023-03-26T19:11:58.914Z,9.45
2023-03-26T19:15:17.600Z,9.41
2023-03-26T19:18:27.607Z,9.40
2023-03-26T19:21:33.435Z,9.31
2023-03-26T19:24:37.751Z,9.29
2023-03-26T19:27:43.653Z,9.21
2023-03-26T19:30:48.918Z,9.11
2023-03-26T19:34:01.409Z,8.97
2023-03-26T19:37:22.765Z,8.92
2023-03-26T19:40:30.801Z,8.86
2023-03-26T19:43:39.279Z,8.66
2023-03-26T19:47:47.346Z,8.73
2023-03-26T19:50:28.727Z,8.67
2023-03-26T19:53:35.536Z,8.58
2023-03-26T19:56:38.966Z,8.57
2023-03-26T19:59:42.245Z,8.72
2023-03-26T20:02:47.423Z,8.87
2023-03-26T20:05:51.366Z,8.85
2023-03-26T20:08:55.585Z,8.88
2023-03-26T20:12:00.155Z,8.83
2023-03-26T20:15:19.434Z,8.51
2023-03-26T20:18:23.242Z,8.75
2023-03-26T20:21:27.033Z,8.83
2023-03-26T20:24:30.685Z,8.88
2023-03-26T20:27:33.700Z,8.89
2023-03-26T20:30:38.383Z,9.05
2023-03-26T20:33:44.665Z,8.96
2023-03-26T20:36:48.085Z,8.93
2023-03-26T20:39:50.939Z,9.04
2023-03-26T20:42:53.717Z,9.05
2023-03-26T20:45:59.162Z,8.87
2023-03-26T20:49:02.050Z,8.77
2023-03-26T20:52:04.427Z,8.71
2023-03-26T20:55:07.573Z,8.62
2023-03-26T20:58:15.483Z,8.61
2023-03-26T21:01:17.806Z,8.54
2023-03-26T21:04:21.106Z,8.92
2023-03-26T21:07:23.246Z,8.93
2023-03-26T21:10:31.600Z,8.85
2023-03-26T21:13:45.254Z,8.71
2023-03-26T21:16:47.662Z,8.68
2023-03-26T21:19:50.287Z,8.57
2023-03-26T21:23:11.668Z,8.64
2023-03-26T21:26:25.462Z,8.62
2023-03-26T21:29:28.119Z,8.78
2023-03-26T21:32:31.797Z,9.26
2023-03-26T21:35:34.948Z,9.33
2023-03-26T21:38:38.106Z,9.34
2023-03-26T21:42:05.754Z,9.43
2023-03-26T21:45:09.013Z,9.22
2023-03-26T21:48:11.506Z,9.04
2023-03-26T21:51:14.894Z,8.95
2023-03-26T21:54:27.223Z,8.66
2023-03-26T21:57:29.284Z,8.93
2023-03-26T22:00:55.532Z,8.96
2023-03-26T22:04:11.338Z,9.33
2023-03-26T22:07:21.001Z,9.21
2023-03-26T22:10:23.263Z,9.24
2023-03-26T22:13:25.665Z,9.51
2023-03-26T22:16:27.764Z,9.53
2023-03-26T22:19:30.526Z,9.47
2023-03-26T22:22:32.642Z,9.63
2023-03-26T22:25:34.863Z,9.62
2023-03-26T22:28:37.222Z,9.60
2023-03-26T22:31:40.550Z,9.71
2023-03-26T22:34:42.549Z,9.68
2023-03-26T22:37:44.624Z,9.60
2023-03-26T22:40:55.879Z,9.55
2023-03-26T22:44:12.871Z,9.76
2023-03-26T22:47:21.979Z,9.71
2023-03-26T22:50:24.893Z,9.64
2023-03-26T22:53:26.877Z,9.65
2023-03-26T22:56:28.887Z,9.56
2023-03-26T22:59:31.224Z,9.63
2023-03-26T23:02:33.487Z,9.64
2023-03-26T23:05:35.599Z,9.39
2023-03-26T23:08:38.834Z,9.17
2023-03-26T23:11:41.429Z,9.43
2023-03-26T23:14:43.778Z,9.35
2023-03-26T23:17:45.962Z,9.46
2023-03-26T23:20:58.186Z,9.34
2023-03-26T23:24:00.602Z,9.32
2023-03-26T23:27:03.702Z,9.27
2023-03-26T23:30:06.247Z,9.32
2023-03-26T23:33:09.239Z,9.32
2023-03-26T23:36:13.995Z,9.27
2023-03-26T23:39:19.653Z,9.40
2023-03-26T23:42:28.897Z,9.27
2023-03-26T23:45:31.854Z,9.39
2023-03-26T23:48:33.933Z,9.20
2023-03-26T23:51:37.140Z,9.19
2023-03-26T23:54:39.241Z,9.14
2023-03-26T23:57:43.382Z,9.13
